METAR Data
IDs: Format: Raw Decoded Include TAF

Data at: 0047 UTC 20 Jul 2019

METAR for:PASD (Sand Point Arpt, AK, US)
Text:PASD 192356Z 35015KT 10SM FEW025 SCT055 SCT110 16/11 A3021 RMK AO2 SLP233 60000 T01610106 10161 20128 58002
Temperature: 16.1°C ( 61°F)
Dewpoint: 10.6°C ( 51°F) [RH = 70%]
Pressure (altimeter):30.21 inches Hg (1023.1 mb) [Sea level pressure: 1023.3 mb]
Winds:from the N (350 degrees) at 17 MPH (15 knots; 7.7 m/s)
Visibility:10 or more sm (16+ km)
Ceiling:at least 12,000 feet AGL
Clouds: few clouds at 2500 feet AGL, scattered clouds at 5500 feet AGL, scattered clouds at 11000 feet AGL
Text:PASD 192351Z 36014KT 10SM FEW025 SCT055 SCT110 16/11 A3021 RMK AO2
Temperature: 16.0°C ( 61°F)
Dewpoint: 11.0°C ( 52°F) [RH = 72%]
Pressure (altimeter):30.21 inches Hg (1023.1 mb)
Winds:from the N (360 degrees) at 16 MPH (14 knots; 7.2 m/s)
Visibility:10 or more sm (16+ km)
Ceiling:at least 12,000 feet AGL
Clouds: few clouds at 2500 feet AGL, scattered clouds at 5500 feet AGL, scattered clouds at 11000 feet AGL
Text:PASD 192259Z 35013KT 10SM FEW019 SCT026 BKN060 15/10 A3022 RMK AO2
Temperature: 15.0°C ( 59°F)
Dewpoint: 10.0°C ( 50°F) [RH = 72%]
Pressure (altimeter):30.22 inches Hg (1023.5 mb)
Winds:from the N (350 degrees) at 15 MPH (13 knots; 6.7 m/s)
Visibility:10 or more sm (16+ km)
Ceiling:6000 feet AGL
Clouds: few clouds at 1900 feet AGL, scattered clouds at 2600 feet AGL, broken clouds at 6000 feet AGL
Text:PASD 192205Z 34007G15KT 10SM FEW019 BKN024 BKN050 15/10 A3023 RMK AO2
Temperature: 15.0°C ( 59°F)
Dewpoint: 10.0°C ( 50°F) [RH = 72%]
Pressure (altimeter):30.23 inches Hg (1023.8 mb)
Winds:from the NNW (340 degrees) at 8 MPH (7 knots; 3.6 m/s) gusting to 17 MPH (15 knots; 7.7 m/s)
Visibility:10 or more sm (16+ km)
Ceiling:2400 feet AGL
Clouds: few clouds at 1900 feet AGL, broken clouds at 2400 feet AGL, broken clouds at 5000 feet AGL
Text:PASD 192155Z 330107G15KT 10SM SCT021 BKN050 BKN080 16/10 A3023
Temperature: 16.0°C ( 61°F)
Dewpoint: 10.0°C ( 50°F) [RH = 68%]
Pressure (altimeter):30.23 inches Hg (1023.8 mb)
Winds:from the NNW (330 degrees) at 123 MPH (107 knots; 55.0 m/s) gusting to 17 MPH (15 knots; 7.7 m/s)
Visibility:10 or more sm (16+ km)
Ceiling:5000 feet AGL
Clouds: scattered clouds at 2100 feet AGL, broken clouds at 5000 feet AGL, broken clouds at 8000 feet AGL
Text:PASD 192056Z 33013KT 10SM FEW018 SCT028 BKN070 15/10 A3022 RMK AO2 SLP235 60000 T01500100 50007
Temperature: 15.0°C ( 59°F)
Dewpoint: 10.0°C ( 50°F) [RH = 72%]
Pressure (altimeter):30.22 inches Hg (1023.5 mb) [Sea level pressure: 1023.5 mb]
Winds:from the NNW (330 degrees) at 15 MPH (13 knots; 6.7 m/s)
Visibility:10 or more sm (16+ km)
Ceiling:7000 feet AGL
Clouds: few clouds at 1800 feet AGL, scattered clouds at 2800 feet AGL, broken clouds at 7000 feet AGL
Text:PASD 192053Z 32014KT 10SM FEW018 SCT028 BKN070 16/10 A3022 RMK AO2
Temperature: 16.0°C ( 61°F)
Dewpoint: 10.0°C ( 50°F) [RH = 68%]
Pressure (altimeter):30.22 inches Hg (1023.5 mb)
Winds:from the NW (320 degrees) at 16 MPH (14 knots; 7.2 m/s)
Visibility:10 or more sm (16+ km)
Ceiling:7000 feet AGL
Clouds: few clouds at 1800 feet AGL, scattered clouds at 2800 feet AGL, broken clouds at 7000 feet AGL
Text:PASD 191956Z 33012KT 10SM FEW017 SCT026 BKN042 13/10 A3022 RMK AO2 SLP236 T01330100
Temperature: 13.3°C ( 56°F)
Dewpoint: 10.0°C ( 50°F) [RH = 80%]
Pressure (altimeter):30.22 inches Hg (1023.5 mb) [Sea level pressure: 1023.6 mb]
Winds:from the NNW (330 degrees) at 14 MPH (12 knots; 6.2 m/s)
Visibility:10 or more sm (16+ km)
Ceiling:4200 feet AGL
Clouds: few clouds at 1700 feet AGL, scattered clouds at 2600 feet AGL, broken clouds at 4200 feet AGL

TAF for:PASD (Sand Point Arpt, AK, US) issued at 2341 UTC 19 Jul 2019
Text:PASD 192341Z 2000/2024 33012KT P6SM VCSH SCT030 BKN070 AMD LTD TO CLD VIS AND WIND
Forecast period:0000 UTC 20 July 2019 to 0000 UTC 21 July 2019
Forecast type:FROM: standard forecast or significant change
Winds:from the NNW (330 degrees) at 14 MPH (12 knots; 6.2 m/s)
Visibility:6 or more sm (10+ km)
Ceiling:7000 feet AGL
Clouds: scattered clouds at 3000 feet AGL, broken clouds at 7000 feet AGL
Weather:VCSH (showers in vicinity)